Time;durP1;ratioP1;P1;durP2;ratioP2;P2;SDS_P1;SDS_P2;PMS_P1;PMS_P2;Temp;Humidity;BMP_temperature;BMP_pressure;BME280_temperature;BME280_humidity;BME280_pressure;Samples;Min_cycle;Max_cycle;Signal;HPM_P1;HPM_P2
2022/04/15 00:02:21;;;;;;;9.60;7.10;;;10.20;99.90;;;;;;5060318;28;20963;-85
2022/04/15 00:04:48;;;;;;;8.90;6.57;;;10.20;99.90;;;;;;5059326;28;20444;-85
2022/04/15 00:07:15;;;;;;;10.33;7.93;;;10.10;99.90;;;;;;5076415;28;20454;-86
2022/04/15 00:09:42;;;;;;;9.33;7.63;;;10.10;99.90;;;;;;5079188;28;20473;-84
2022/04/15 00:12:17;;;;;;;10.13;7.20;;;10.10;99.90;;;;;;5079089;28;20553;-86
2022/04/15 00:14:44;;;;;;;10.40;8.10;;;10.00;99.90;;;;;;5069065;28;20509;-84
2022/04/15 00:17:11;;;;;;;8.37;6.93;;;10.00;99.90;;;;;;5058428;28;20458;-84
2022/04/15 00:19:38;;;;;;;13.00;8.60;;;10.00;99.90;;;;;;5062718;28;20834;-82
2022/04/15 00:22:05;;;;;;;10.60;7.67;;;9.90;99.90;;;;;;5078562;28;20540;-84
2022/04/15 00:24:31;;;;;;;10.27;7.20;;;9.90;99.90;;;;;;5073441;28;20819;-85
2022/04/15 00:26:58;;;;;;;13.20;7.80;;;9.80;99.90;;;;;;5058783;28;20459;-84
2022/04/15 00:29:28;;;;;;;14.33;8.73;;;9.80;99.90;;;;;;5057988;28;20458;-84
2022/04/15 00:31:55;;;;;;;13.23;8.57;;;9.80;99.90;;;;;;5057872;28;20546;-83
2022/04/15 00:34:22;;;;;;;13.63;8.33;;;9.80;99.90;;;;;;5056804;28;20473;-85
2022/04/15 00:36:49;;;;;;;11.30;8.10;;;9.70;99.90;;;;;;5055991;28;20991;-84
2022/04/15 00:39:15;;;;;;;12.40;7.80;;;9.70;99.90;;;;;;5057712;28;20983;-83
2022/04/15 00:41:43;;;;;;;9.20;8.03;;;9.70;99.90;;;;;;5057695;28;20449;-83
2022/04/15 00:44:10;;;;;;;8.83;6.93;;;9.60;99.90;;;;;;5056080;28;21097;-84
2022/04/15 00:46:38;;;;;;;9.13;7.40;;;9.60;99.90;;;;;;5055919;28;20648;-83
2022/04/15 00:49:05;;;;;;;10.37;7.73;;;9.60;99.90;;;;;;5057616;28;20454;-83
2022/04/15 00:51:35;;;;;;;9.43;7.10;;;9.60;99.90;;;;;;5057475;28;20481;-82
2022/04/15 00:54:04;;;;;;;15.70;7.73;;;9.60;99.90;;;;;;5056216;28;20478;-83
2022/04/15 00:56:35;;;;;;;12.30;8.00;;;9.50;99.90;;;;;;5056832;28;20516;-83
2022/04/15 00:59:04;;;;;;;10.13;7.40;;;9.50;99.90;;;;;;5057471;28;20506;-82
2022/04/15 01:01:32;;;;;;;9.53;7.00;;;9.50;99.90;;;;;;5056896;28;20457;-84
2022/04/15 01:04:03;;;;;;;11.77;8.43;;;9.50;99.90;;;;;;5057116;28;21057;-84
2022/04/15 01:06:32;;;;;;;9.90;6.63;;;9.40;99.90;;;;;;5060469;28;20445;-84
2022/04/15 01:09:00;;;;;;;13.17;7.27;;;9.40;99.90;;;;;;5062633;28;20450;-85
2022/04/15 01:11:29;;;;;;;8.87;6.97;;;9.40;99.90;;;;;;5062036;28;20468;-83
2022/04/15 01:14:00;;;;;;;9.80;7.30;;;9.40;99.90;;;;;;5061430;28;20475;-86
2022/04/15 01:16:29;;;;;;;9.57;6.80;;;9.30;99.90;;;;;;5061891;28;20496;-83
2022/04/15 01:18:56;;;;;;;10.10;7.40;;;9.30;99.90;;;;;;5067413;28;20486;-85
2022/04/15 01:21:28;;;;;;;15.13;8.50;;;9.30;99.90;;;;;;5082607;28;20476;-85
2022/04/15 01:23:58;;;;;;;8.23;6.77;;;9.20;99.90;;;;;;5080706;28;20886;-83
2022/04/15 01:26:25;;;;;;;11.90;7.73;;;9.20;99.90;;;;;;5062575;28;20461;-84
2022/04/15 01:28:51;;;;;;;13.53;7.87;;;9.20;99.90;;;;;;5063144;28;20458;-83
2022/04/15 01:31:18;;;;;;;11.50;7.30;;;9.20;99.90;;;;;;5062687;28;20449;-84
2022/04/15 01:33:45;;;;;;;10.90;7.93;;;9.10;99.90;;;;;;5073565;28;20478;-83
2022/04/15 01:36:14;;;;;;;13.33;7.87;;;9.10;99.90;;;;;;5073231;28;20562;-83
2022/04/15 01:38:41;;;;;;;7.77;6.30;;;9.10;99.90;;;;;;5079786;28;20507;-84
2022/04/15 01:41:09;;;;;;;9.33;6.87;;;9.10;99.90;;;;;;5081071;28;20467;-83
2022/04/15 01:43:36;;;;;;;11.40;8.00;;;9.00;99.90;;;;;;5074270;28;20573;-84
2022/04/15 01:46:03;;;;;;;10.80;7.00;;;9.00;99.90;;;;;;5075970;28;20455;-83
2022/04/15 01:48:30;;;;;;;12.13;7.57;;;8.90;99.90;;;;;;5075717;28;20548;-85
2022/04/15 01:50:56;;;;;;;10.60;7.40;;;9.00;99.90;;;;;;5062487;28;20449;-83
2022/04/15 01:53:23;;;;;;;9.07;6.90;;;8.90;99.90;;;;;;5063555;28;20469;-86
2022/04/15 01:55:50;;;;;;;9.30;7.07;;;8.90;99.90;;;;;;5081371;28;20493;-84
2022/04/15 01:58:18;;;;;;;8.90;6.60;;;8.90;99.90;;;;;;5080372;28;20463;-84
2022/04/15 02:00:45;;;;;;;9.60;7.10;;;8.90;99.90;;;;;;5065922;28;20635;-83
2022/04/15 02:03:12;;;;;;;11.10;6.87;;;8.90;99.90;;;;;;5063546;28;20486;-85
2022/04/15 02:05:38;;;;;;;9.73;6.60;;;8.80;99.90;;;;;;5080321;28;20455;-84
2022/04/15 02:08:05;;;;;;;12.93;7.77;;;8.80;99.90;;;;;;5077456;28;20458;-82
2022/04/15 02:10:32;;;;;;;10.20;7.00;;;8.80;99.90;;;;;;5079938;28;20444;-83
2022/04/15 02:12:59;;;;;;;11.13;7.27;;;8.80;99.90;;;;;;5077275;28;20556;-87
2022/04/15 02:15:28;;;;;;;10.97;7.00;;;8.70;99.90;;;;;;5060071;28;20935;-82
2022/04/15 02:17:55;;;;;;;9.93;6.60;;;8.70;99.90;;;;;;5060730;28;20457;-82
2022/04/15 02:20:22;;;;;;;10.03;7.60;;;8.70;99.90;;;;;;5080737;28;20451;-85
2022/04/15 02:22:50;;;;;;;8.80;6.90;;;8.70;99.90;;;;;;5076177;28;20480;-83
2022/04/15 02:25:17;;;;;;;12.07;7.40;;;8.60;99.90;;;;;;5060246;28;20453;-85
2022/04/15 02:27:44;;;;;;;11.60;8.10;;;8.60;99.90;;;;;;5060543;28;20456;-85
2022/04/15 02:30:11;;;;;;;8.93;7.70;;;8.60;99.90;;;;;;5079666;28;20451;-85
2022/04/15 02:32:39;;;;;;;13.33;8.07;;;8.60;99.90;;;;;;5079375;28;20451;-84
2022/04/15 02:35:09;;;;;;;13.60;7.47;;;8.60;99.90;;;;;;5079180;28;20449;-83
2022/04/15 02:37:36;;;;;;;14.63;9.03;;;8.60;99.90;;;;;;5078081;28;20543;-83
2022/04/15 02:40:03;;;;;;;10.23;8.43;;;8.50;99.90;;;;;;5067911;28;20551;-85
2022/04/15 02:42:30;;;;;;;12.00;8.37;;;8.50;99.90;;;;;;5069565;28;20809;-83
2022/04/15 02:44:57;;;;;;;10.90;7.73;;;8.50;99.90;;;;;;5079873;28;20471;-84
2022/04/15 02:47:24;;;;;;;11.60;8.30;;;8.40;99.90;;;;;;5079390;28;20445;-85
2022/04/15 02:49:52;;;;;;;11.50;7.93;;;8.40;99.90;;;;;;5079989;28;20979;-82
2022/04/15 02:52:19;;;;;;;9.93;7.30;;;8.40;99.90;;;;;;5072128;28;20453;-82
2022/04/15 02:54:46;;;;;;;11.97;7.97;;;8.40;99.90;;;;;;5060660;28;20463;-82
2022/04/15 02:57:13;;;;;;;10.43;7.77;;;8.40;99.90;;;;;;5062912;28;20544;-84
2022/04/15 02:59:39;;;;;;;10.83;8.33;;;8.40;99.90;;;;;;5079801;28;20458;-84
2022/04/15 03:02:06;;;;;;;12.93;9.03;;;8.30;99.90;;;;;;5075594;28;20460;-82
2022/04/15 03:04:33;;;;;;;10.17;7.70;;;8.30;99.90;;;;;;5058492;28;20468;-81
2022/04/15 03:07:01;;;;;;;10.80;7.63;;;8.30;99.90;;;;;;5060763;28;20460;-82
2022/04/15 03:09:28;;;;;;;10.97;8.77;;;8.30;99.90;;;;;;5078183;28;20464;-85
2022/04/15 03:11:55;;;;;;;11.27;8.40;;;8.30;99.90;;;;;;5076373;28;20459;-83
2022/04/15 03:14:22;;;;;;;10.93;8.37;;;8.30;99.90;;;;;;5058510;28;20533;-82
2022/04/15 03:16:48;;;;;;;11.50;6.97;;;8.30;99.90;;;;;;5058995;28;20481;-82
2022/04/15 03:19:15;;;;;;;9.83;7.33;;;8.20;99.90;;;;;;5078786;28;20542;-82
2022/04/15 03:21:42;;;;;;;10.23;8.40;;;8.20;99.90;;;;;;5076440;28;20452;-83
2022/04/15 03:24:11;;;;;;;11.87;8.13;;;8.20;99.90;;;;;;5067872;28;20565;-82
2022/04/15 03:26:38;;;;;;;11.70;8.20;;;8.20;99.90;;;;;;5059370;28;20825;-83
2022/04/15 03:29:05;;;;;;;10.67;8.13;;;8.20;99.90;;;;;;5074241;28;20461;-83
2022/04/15 03:31:32;;;;;;;11.90;8.77;;;8.20;99.90;;;;;;5078585;28;20871;-83
2022/04/15 03:33:59;;;;;;;11.80;8.47;;;8.10;99.90;;;;;;5058793;28;20562;-82
2022/04/15 03:36:26;;;;;;;12.57;9.67;;;8.10;99.90;;;;;;5058090;28;20567;-83
2022/04/15 03:38:52;;;;;;;11.77;8.73;;;8.10;99.90;;;;;;5059666;28;20454;-83
2022/04/15 03:41:22;;;;;;;10.83;8.50;;;8.10;99.90;;;;;;5065352;28;20458;-82
2022/04/15 03:43:49;;;;;;;13.07;9.30;;;8.00;99.90;;;;;;5067705;28;20503;-83
2022/04/15 03:46:16;;;;;;;9.30;7.50;;;8.10;99.90;;;;;;5058977;28;20459;-82
2022/04/15 03:48:43;;;;;;;9.50;6.90;;;8.00;99.90;;;;;;5057847;28;20463;-82
2022/04/15 03:51:11;;;;;;;11.23;8.60;;;8.00;99.90;;;;;;5059228;28;20434;-84
2022/04/15 03:53:38;;;;;;;11.20;8.50;;;7.90;99.90;;;;;;5059324;28;20578;-83
2022/04/15 03:56:07;;;;;;;12.20;8.97;;;7.90;99.90;;;;;;5058703;28;20491;-84
2022/04/15 03:58:35;;;;;;;11.70;8.67;;;7.90;99.90;;;;;;5059864;28;20797;-84
2022/04/15 04:01:02;;;;;;;10.03;8.47;;;7.80;99.90;;;;;;5058696;28;20451;-84
2022/04/15 04:03:28;;;;;;;16.00;9.00;;;7.80;99.90;;;;;;5058116;28;20554;-82
2022/04/15 04:05:55;;;;;;;11.37;8.30;;;7.80;99.90;;;;;;5059868;28;20452;-83
2022/04/15 04:08:22;;;;;;;11.17;7.93;;;7.80;99.90;;;;;;5059075;28;20548;-82
2022/04/15 04:10:49;;;;;;;11.13;8.53;;;7.80;99.90;;;;;;5059609;28;20449;-83
2022/04/15 04:13:15;;;;;;;13.83;7.83;;;7.70;99.90;;;;;;5058324;28;20472;-83
2022/04/15 04:15:44;;;;;;;11.57;8.03;;;7.70;99.90;;;;;;5060639;28;20448;-79
2022/04/15 04:18:13;;;;;;;13.07;9.57;;;7.70;99.90;;;;;;5072954;28;20541;-80
2022/04/15 04:20:41;;;;;;;12.80;8.60;;;7.70;99.90;;;;;;5076470;28;20509;-80
2022/04/15 04:23:09;;;;;;;11.70;8.90;;;7.60;99.90;;;;;;5078243;28;20473;-80
2022/04/15 04:25:35;;;;;;;15.40;8.07;;;7.60;99.90;;;;;;5079189;28;20451;-79
2022/04/15 04:28:02;;;;;;;9.40;7.90;;;7.60;99.90;;;;;;5059758;28;20451;-80
2022/04/15 04:30:29;;;;;;;10.80;8.20;;;7.50;99.90;;;;;;5058086;28;20464;-80
2022/04/15 04:32:59;;;;;;;13.57;9.20;;;7.60;99.90;;;;;;5059252;28;20478;-80
2022/04/15 04:35:26;;;;;;;13.47;8.90;;;7.60;99.90;;;;;;5059138;28;21014;-79
2022/04/15 04:37:53;;;;;;;10.47;8.00;;;7.60;99.90;;;;;;5056354;28;20706;-79
2022/04/15 04:40:20;;;;;;;14.50;10.00;;;7.60;99.90;;;;;;5056541;28;20906;-80
2022/04/15 04:42:48;;;;;;;12.10;8.90;;;7.60;99.90;;;;;;5057681;28;20471;-79
2022/04/15 04:45:15;;;;;;;14.40;8.77;;;7.60;99.90;;;;;;5054868;28;20462;-78
2022/04/15 04:47:44;;;;;;;10.47;8.37;;;7.70;99.90;;;;;;5073796;28;20461;-79
2022/04/15 04:50:12;;;;;;;13.77;10.87;;;7.70;99.90;;;;;;5072928;28;20859;-78
2022/04/15 04:52:41;;;;;;;12.93;10.60;;;7.90;99.90;;;;;;5060195;28;20444;-79
2022/04/15 04:55:09;;;;;;;19.40;10.50;;;8.10;99.90;;;;;;5055411;28;20454;-79
2022/04/15 04:57:37;;;;;;;15.63;10.23;;;8.20;99.90;;;;;;5073743;28;20538;-79
2022/04/15 05:00:04;;;;;;;13.37;10.60;;;8.40;99.90;;;;;;5080370;28;20868;-80
2022/04/15 05:02:31;;;;;;;18.13;10.33;;;8.60;99.90;;;;;;5076060;28;20831;-79
2022/04/15 05:04:58;;;;;;;18.37;11.57;;;8.70;99.90;;;;;;5075527;28;20844;-78
2022/04/15 05:07:26;;;;;;;18.33;12.00;;;8.70;99.90;;;;;;5074214;28;20454;-79
2022/04/15 05:09:53;;;;;;;16.00;11.20;;;8.90;99.90;;;;;;5057182;28;20455;-79
2022/04/15 05:12:20;;;;;;;23.27;12.97;;;8.90;99.90;;;;;;5072216;28;20453;-78
2022/04/15 05:14:47;;;;;;;20.20;14.03;;;9.00;99.90;;;;;;5074456;28;20456;-78
2022/04/15 05:17:13;;;;;;;17.50;11.50;;;8.90;99.90;;;;;;5058869;28;20554;-79
2022/04/15 05:19:41;;;;;;;15.10;10.33;;;8.90;99.90;;;;;;5058701;28;20453;-78
2022/04/15 05:22:08;;;;;;;20.47;13.47;;;8.90;99.90;;;;;;5071908;28;20448;-78
2022/04/15 05:24:37;;;;;;;18.47;12.60;;;9.00;99.90;;;;;;5072962;28;20847;-79
2022/04/15 05:27:04;;;;;;;16.50;11.87;;;9.00;99.90;;;;;;5067944;28;20455;-79
2022/04/15 05:29:31;;;;;;;17.57;12.17;;;9.10;99.90;;;;;;5059321;28;20986;-80
2022/04/15 05:31:58;;;;;;;23.03;13.40;;;9.00;99.90;;;;;;5077809;28;20560;-80
2022/04/15 05:34:25;;;;;;;15.87;12.33;;;9.10;99.90;;;;;;5077339;28;20473;-80
2022/04/15 05:36:51;;;;;;;16.80;13.30;;;9.10;99.90;;;;;;5074686;28;20590;-80
2022/04/15 05:39:19;;;;;;;19.90;13.23;;;9.10;99.90;;;;;;5068902;28;20459;-80
2022/04/15 05:41:47;;;;;;;16.83;11.87;;;9.10;99.90;;;;;;5068518;28;20501;-80
2022/04/15 05:44:14;;;;;;;18.03;12.00;;;9.10;99.90;;;;;;5076295;28;20546;-79
2022/04/15 05:46:42;;;;;;;17.57;12.87;;;9.00;99.90;;;;;;5077621;28;20450;-80
2022/04/15 05:49:13;;;;;;;15.67;10.60;;;9.00;99.90;;;;;;5077966;28;20476;-80
2022/04/15 05:51:41;;;;;;;20.30;11.63;;;9.00;99.90;;;;;;5090964;28;20447;-81
2022/04/15 05:54:07;;;;;;;15.00;12.33;;;9.00;99.90;;;;;;5080536;28;20464;-83
2022/04/15 05:56:34;;;;;;;18.83;12.97;;;9.10;99.90;;;;;;5072495;28;20507;-83
2022/04/15 05:59:03;;;;;;;17.80;11.77;;;9.00;99.90;;;;;;5061206;28;20972;-83
2022/04/15 06:01:30;;;;;;;16.90;11.80;;;9.10;99.90;;;;;;5061107;28;20459;-82
2022/04/15 06:03:57;;;;;;;15.30;11.20;;;9.30;99.90;;;;;;5060606;28;20477;-82
2022/04/15 06:06:23;;;;;;;16.13;10.20;;;9.50;99.90;;;;;;5066726;28;20451;-83
2022/04/15 06:08:50;;;;;;;12.50;9.33;;;9.50;99.90;;;;;;5079868;28;20471;-83
2022/04/15 06:11:17;;;;;;;16.30;10.70;;;9.50;99.90;;;;;;5081213;28;20463;-83
2022/04/15 06:13:47;;;;;;;18.27;11.50;;;9.50;99.90;;;;;;5074320;28;20483;-84
2022/04/15 06:16:17;;;;;;;13.73;9.40;;;9.50;99.90;;;;;;5076053;28;20492;-84
2022/04/15 06:18:44;;;;;;;12.97;9.67;;;9.50;99.90;;;;;;5073176;28;20483;-84
2022/04/15 06:21:11;;;;;;;12.50;10.20;;;9.50;99.90;;;;;;5077938;28;20519;-84
2022/04/15 06:23:38;;;;;;;12.23;8.90;;;9.70;99.90;;;;;;5078444;28;21069;-84
2022/04/15 06:26:05;;;;;;;11.90;9.10;;;9.80;99.90;;;;;;5080798;28;20502;-84
2022/04/15 06:28:32;;;;;;;13.10;9.83;;;9.80;99.90;;;;;;5069502;28;20494;-82
2022/04/15 06:31:06;;;;;;;10.10;8.23;;;9.90;99.90;;;;;;5080159;28;20430;-82
2022/04/15 06:33:36;;;;;;;14.90;9.20;;;9.80;99.90;;;;;;5079530;28;20502;-84
2022/04/15 06:36:05;;;;;;;12.37;8.10;;;9.80;99.90;;;;;;5078610;28;20460;-82
2022/04/15 06:38:32;;;;;;;11.87;7.67;;;9.80;99.90;;;;;;5069765;28;21035;-83
2022/04/15 06:40:58;;;;;;;14.73;9.90;;;10.00;99.90;;;;;;5065072;28;20454;-83
2022/04/15 06:43:28;;;;;;;12.07;8.70;;;10.00;99.90;;;;;;5058332;28;20551;-82
2022/04/15 06:45:56;;;;;;;10.43;7.83;;;10.00;99.90;;;;;;5059331;28;20869;-82
2022/04/15 06:48:24;;;;;;;12.00;8.47;;;9.90;99.90;;;;;;5073658;28;20482;-83
2022/04/15 06:50:56;;;;;;;11.33;8.23;;;9.80;99.90;;;;;;5078193;28;20464;-82
2022/04/15 06:53:23;;;;;;;12.57;8.50;;;9.80;99.90;;;;;;5078256;28;20479;-83
2022/04/15 06:55:54;;;;;;;10.07;7.80;;;9.90;99.90;;;;;;5068813;28;20467;-82
2022/04/15 06:58:21;;;;;;;9.07;6.93;;;10.00;99.90;;;;;;5072473;28;20485;-84
2022/04/15 07:00:48;;;;;;;9.50;6.70;;;10.00;99.90;;;;;;5075686;28;20444;-83
2022/04/15 07:03:15;;;;;;;12.23;7.90;;;10.00;99.90;;;;;;5066880;28;20574;-81
2022/04/15 07:05:43;;;;;;;9.60;6.83;;;10.00;99.90;;;;;;5075955;28;20454;-82
2022/04/15 07:08:12;;;;;;;12.63;7.87;;;10.00;99.90;;;;;;5067935;28;20440;-83
2022/04/15 07:10:39;;;;;;;10.50;7.00;;;9.90;99.90;;;;;;5065996;28;20447;-83
2022/04/15 07:13:07;;;;;;;11.77;7.17;;;9.80;99.90;;;;;;5064323;28;20830;-83
2022/04/15 07:15:34;;;;;;;9.47;7.07;;;9.80;99.90;;;;;;5061799;28;20540;-83
2022/04/15 07:18:03;;;;;;;9.20;7.07;;;9.90;99.90;;;;;;5073009;28;20932;-84
2022/04/15 07:20:29;;;;;;;10.87;6.50;;;10.00;99.90;;;;;;5073799;28;20893;-83
2022/04/15 07:22:59;;;;;;;4.73;4.23;;;10.20;99.90;;;;;;5076831;28;20480;-83
2022/04/15 07:25:28;;;;;;;8.90;5.67;;;10.60;99.90;;;;;;5068785;28;20958;-82
2022/04/15 07:27:56;;;;;;;5.37;4.03;;;11.20;99.90;;;;;;5058291;28;20531;-85
2022/04/15 07:30:24;;;;;;;7.50;3.30;;;11.30;99.90;;;;;;5060733;28;20470;-84
2022/04/15 07:32:53;;;;;;;5.03;2.70;;;11.40;99.90;;;;;;5062952;28;20479;-83
2022/04/15 07:35:22;;;;;;;4.73;3.67;;;11.50;99.90;;;;;;5067837;28;20529;-84
2022/04/15 07:37:49;;;;;;;5.10;2.67;;;11.60;99.90;;;;;;5077462;28;20577;-84
2022/04/15 07:40:16;;;;;;;5.20;3.17;;;11.70;99.90;;;;;;5070889;28;20497;-82
2022/04/15 07:42:46;;;;;;;4.90;2.90;;;11.90;99.90;;;;;;5077973;28;20510;-83
2022/04/15 07:45:14;;;;;;;7.30;4.93;;;12.10;99.90;;;;;;5074248;28;20451;-83
2022/04/15 07:47:42;;;;;;;5.03;3.40;;;11.90;99.90;;;;;;5072252;28;20474;-83
2022/04/15 07:50:09;;;;;;;6.93;4.20;;;12.20;99.90;;;;;;5085030;28;20851;-83
2022/04/15 07:52:36;;;;;;;9.77;6.77;;;12.00;99.90;;;;;;5081327;28;20482;-83
2022/04/15 07:55:07;;;;;;;7.10;4.30;;;12.10;99.90;;;;;;5070652;28;20501;-83
2022/04/15 07:57:34;;;;;;;6.13;5.17;;;12.00;99.90;;;;;;5078714;28;20474;-82
2022/04/15 08:00:03;;;;;;;4.40;2.97;;;11.80;99.90;;;;;;5087035;28;20454;-84
2022/04/15 08:02:30;;;;;;;6.53;3.27;;;12.20;99.90;;;;;;5076285;28;20455;-83
2022/04/15 08:05:04;;;;;;;4.40;2.97;;;12.10;99.90;;;;;;5072972;28;20459;-83
2022/04/15 08:07:33;;;;;;;5.63;3.00;;;12.20;99.90;;;;;;5077407;28;20565;-84
2022/04/15 08:10:00;;;;;;;4.23;3.27;;;12.20;99.90;;;;;;5057944;28;20459;-82
2022/04/15 08:12:27;;;;;;;5.03;3.60;;;11.70;99.90;;;;;;5057971;28;20460;-82
2022/04/15 08:14:54;;;;;;;5.20;3.93;;;11.50;99.90;;;;;;5071200;28;20457;-84
2022/04/15 08:17:22;;;;;;;6.47;4.00;;;11.40;99.90;;;;;;5075792;28;20542;-83
2022/04/15 08:19:49;;;;;;;5.70;4.30;;;11.50;99.90;;;;;;5059234;28;20943;-84
2022/04/15 08:22:16;;;;;;;5.40;4.10;;;11.50;99.90;;;;;;5059022;28;20447;-83
2022/04/15 08:24:45;;;;;;;5.70;3.43;;;11.50;99.90;;;;;;5063076;28;20534;-83
2022/04/15 08:27:12;;;;;;;5.87;3.27;;;11.50;99.90;;;;;;5066471;28;20455;-84
2022/04/15 08:29:39;;;;;;;9.13;3.87;;;11.70;99.90;;;;;;5060704;28;20470;-83
2022/04/15 08:32:08;;;;;;;5.50;3.70;;;11.80;99.90;;;;;;5073778;28;20455;-83
2022/04/15 08:34:37;;;;;;;5.53;3.70;;;11.70;99.90;;;;;;5057348;28;20561;-82
2022/04/15 08:37:04;;;;;;;6.23;3.93;;;11.60;99.90;;;;;;5076494;28;20839;-83
2022/04/15 08:39:31;;;;;;;6.50;4.33;;;11.70;99.90;;;;;;5073278;28;20505;-84
2022/04/15 08:42:01;;;;;;;4.70;4.00;;;11.40;99.90;;;;;;5054435;28;20882;-83
2022/04/15 08:44:31;;;;;;;7.23;4.53;;;11.40;99.90;;;;;;5075747;28;20485;-84
2022/04/15 08:46:58;;;;;;;7.10;5.70;;;11.20;99.90;;;;;;5077960;28;20478;-84
2022/04/15 08:49:26;;;;;;;5.90;4.20;;;11.30;99.90;;;;;;5057157;28;20469;-83
2022/04/15 08:51:55;;;;;;;5.83;4.70;;;11.10;99.90;;;;;;5056219;28;20465;-82
2022/04/15 08:54:22;;;;;;;8.30;4.90;;;10.90;99.90;;;;;;5064753;28;20553;-82
2022/04/15 08:56:49;;;;;;;6.93;5.80;;;10.80;99.90;;;;;;5058778;28;20465;-83
2022/04/15 08:59:16;;;;;;;13.23;5.87;;;10.60;99.90;;;;;;5066004;28;20845;-83
2022/04/15 09:01:43;;;;;;;8.00;5.30;;;10.70;99.90;;;;;;5066601;28;20458;-84
2022/04/15 09:04:10;;;;;;;11.90;5.90;;;10.60;99.90;;;;;;5074753;28;20540;-82
2022/04/15 09:06:38;;;;;;;9.03;6.00;;;10.90;99.90;;;;;;5082035;28;20450;-82
2022/04/15 09:09:11;;;;;;;8.40;5.87;;;11.00;99.90;;;;;;5091801;28;20464;-83
2022/04/15 09:11:40;;;;;;;8.70;5.63;;;11.10;99.90;;;;;;5083710;28;20451;-82
2022/04/15 09:14:10;;;;;;;7.37;5.70;;;11.30;99.90;;;;;;5071394;28;20475;-82
2022/04/15 09:16:41;;;;;;;9.80;5.37;;;11.40;99.90;;;;;;5071873;28;20519;-82
2022/04/15 09:19:08;;;;;;;8.43;6.30;;;11.40;99.90;;;;;;5091401;28;20538;-82
2022/04/15 09:21:35;;;;;;;7.80;5.80;;;11.10;99.90;;;;;;5090204;28;20482;-82
2022/04/15 09:24:03;;;;;;;7.27;6.20;;;11.10;99.90;;;;;;5087580;28;20466;-83
2022/04/15 09:26:31;;;;;;;12.27;6.73;;;11.30;99.90;;;;;;5064166;28;20545;-84
2022/04/15 09:28:58;;;;;;;10.50;6.93;;;11.10;99.90;;;;;;5066134;28;20462;-83
2022/04/15 09:31:26;;;;;;;10.87;7.73;;;11.00;99.90;;;;;;5070502;28;20549;-83
2022/04/15 09:33:54;;;;;;;11.40;6.53;;;11.00;99.90;;;;;;5076468;28;20478;-82
2022/04/15 09:36:29;;;;;;;8.53;7.13;;;10.90;99.90;;;;;;5062451;28;21002;-83
2022/04/15 09:39:10;;;;;;;9.93;6.33;;;10.80;99.90;;;;;;5087375;28;20992;-83
2022/04/15 09:41:40;;;;;;;8.27;6.23;;;11.00;99.90;;;;;;5067372;28;20525;-82
2022/04/15 09:44:07;;;;;;;8.10;6.60;;;11.10;99.90;;;;;;5086253;28;20508;-84
2022/04/15 09:46:34;;;;;;;8.27;6.90;;;11.20;99.90;;;;;;5079595;28;20458;-83
2022/04/15 09:49:05;;;;;;;9.00;7.53;;;11.30;99.90;;;;;;5073038;28;20898;-84
2022/04/15 09:51:34;;;;;;;8.17;6.80;;;11.20;99.90;;;;;;5072085;28;20534;-83
2022/04/15 09:54:05;;;;;;;8.20;6.83;;;11.30;99.90;;;;;;5070399;28;20904;-82
2022/04/15 09:56:42;;;;;;;6.70;5.90;;;11.40;99.90;;;;;;5074210;28;20460;-82
2022/04/15 09:59:15;;;;;;;6.73;5.97;;;11.60;99.90;;;;;;5065367;28;20489;-80
2022/04/15 10:01:57;;;;;;;7.47;6.70;;;11.50;99.90;;;;;;5063736;28;20463;-82
2022/04/15 10:04:34;;;;;;;8.57;7.13;;;11.30;99.90;;;;;;5072092;28;20470;-82
2022/04/15 10:07:07;;;;;;;11.00;6.40;;;11.30;99.90;;;;;;5071580;28;20476;-80
2022/04/15 10:09:51;;;;;;;8.03;7.10;;;11.40;99.90;;;;;;5071212;28;20455;-81
2022/04/15 10:12:20;;;;;;;7.33;5.67;;;11.30;99.90;;;;;;5075985;28;20487;-81
2022/04/15 10:14:48;;;;;;;6.87;6.23;;;11.40;99.90;;;;;;5072821;28;20489;-82
2022/04/15 10:17:19;;;;;;;6.40;5.13;;;11.40;99.90;;;;;;5060166;28;20528;-82
2022/04/15 10:19:47;;;;;;;9.23;6.90;;;11.60;99.90;;;;;;5064733;28;20520;-82
2022/04/15 10:22:15;;;;;;;7.80;7.00;;;11.50;99.90;;;;;;5079492;28;20840;-82
2022/04/15 10:24:41;;;;;;;9.00;6.30;;;11.30;99.90;;;;;;5069241;28;20856;-82
2022/04/15 10:27:11;;;;;;;10.10;6.50;;;11.40;99.90;;;;;;5065769;28;20450;-82
2022/04/15 10:29:40;;;;;;;7.13;5.43;;;11.50;99.90;;;;;;5072013;28;20467;-82
2022/04/15 10:32:14;;;;;;;6.20;4.83;;;11.70;99.90;;;;;;5068824;28;20457;-81
2022/04/15 10:34:45;;;;;;;6.50;5.27;;;11.80;99.90;;;;;;5068114;28;20478;-81
2022/04/15 10:37:12;;;;;;;10.60;5.03;;;12.20;99.90;;;;;;5079250;28;20501;-81
2022/04/15 10:39:47;;;;;;;6.70;4.77;;;12.40;99.90;;;;;;5064019;28;20983;-80
2022/04/15 10:42:18;;;;;;;4.20;3.73;;;12.30;99.90;;;;;;5065127;28;20800;-81
2022/04/15 10:44:47;;;;;;;5.93;3.83;;;12.60;99.90;;;;;;5065133;28;20471;-82
2022/04/15 10:47:27;;;;;;;5.43;3.83;;;12.70;99.90;;;;;;5068427;28;20455;-83
2022/04/15 10:49:55;;;;;;;7.60;5.13;;;12.50;99.90;;;;;;5058308;28;20453;-83
2022/04/15 10:52:25;;;;;;;6.43;4.53;;;12.80;99.90;;;;;;5057260;28;20986;-82
2022/04/15 10:54:53;;;;;;;7.47;5.43;;;13.00;99.90;;;;;;5060301;28;20478;-81
2022/04/15 10:57:22;;;;;;;8.23;5.63;;;13.20;99.90;;;;;;5072377;28;20454;-82
2022/04/15 11:02:41;;;;;;;9.27;6.27;;;13.20;99.90;;;;;;5058586;28;20424;-81
2022/04/15 11:05:11;;;;;;;7.13;5.47;;;13.20;99.90;;;;;;5077915;28;20520;-81
2022/04/15 11:07:51;;;;;;;6.23;4.57;;;13.40;99.90;;;;;;5063247;28;20461;-81
2022/04/15 11:10:44;;;;;;;6.10;4.10;;;13.80;99.90;;;;;;5074353;28;20452;-81
2022/04/15 11:13:28;;;;;;;6.80;5.10;;;14.50;99.90;;;;;;5064116;28;20479;-81
2022/04/15 11:15:59;;;;;;;8.10;4.73;;;14.80;99.90;;;;;;5065095;28;20467;-82
2022/04/15 11:18:42;;;;;;;6.40;4.33;;;15.00;99.90;;;;;;5066839;28;20539;-82
2022/04/15 11:21:29;;;;;;;8.00;5.80;;;15.20;99.90;;;;;;5080037;28;20450;-81
2022/04/15 11:24:12;;;;;;;9.40;7.13;;;14.80;99.90;;;;;;5059954;28;20481;-81
2022/04/15 11:26:43;;;;;;;10.53;7.63;;;14.80;99.90;;;;;;5063608;28;20843;-81
2022/04/15 11:29:16;;;;;;;10.93;8.50;;;15.00;99.90;;;;;;5058230;28;20461;-80
2022/04/15 11:31:46;;;;;;;11.37;8.53;;;15.10;99.90;;;;;;5062941;28;20814;-82
2022/04/15 11:34:20;;;;;;;11.80;8.43;;;14.90;99.90;;;;;;5055357;28;20475;-81
2022/04/15 11:36:48;;;;;;;10.57;7.70;;;14.90;99.90;;;;;;5057585;28;20446;-82
2022/04/15 11:39:19;;;;;;;11.50;7.40;;;15.10;99.90;;;;;;5061673;28;21037;-82
2022/04/15 11:41:52;;;;;;;10.27;7.00;;;15.00;99.90;;;;;;5076508;28;20467;-82
2022/04/15 11:44:28;;;;;;;8.80;6.80;;;15.00;99.90;;;;;;5073886;28;20514;-82
2022/04/15 11:47:15;;;;;;;8.50;6.90;;;14.60;99.90;;;;;;5058992;28;20477;-83
2022/04/15 11:49:46;;;;;;;8.23;6.27;;;14.70;99.90;;;;;;5061470;28;21358;-82
2022/04/15 11:52:26;;;;;;;11.60;6.47;;;14.40;99.90;;;;;;5067355;28;20447;-82
2022/04/15 11:54:54;;;;;;;8.97;7.07;;;14.50;99.90;;;;;;5065664;28;20455;-81
2022/04/15 11:57:23;;;;;;;7.17;5.70;;;14.70;99.90;;;;;;5065906;28;20484;-82
2022/04/15 11:59:51;;;;;;;10.27;7.93;;;15.00;99.90;;;;;;5072083;28;21020;-81
2022/04/15 12:02:23;;;;;;;10.90;7.07;;;14.70;99.90;;;;;;5069004;28;20458;-82
2022/04/15 12:04:51;;;;;;;8.63;6.90;;;15.00;99.90;;;;;;5060642;28;20456;-82
2022/04/15 12:07:19;;;;;;;10.43;7.33;;;15.20;99.90;;;;;;5061893;28;20484;-82
2022/04/15 12:09:49;;;;;;;9.53;6.93;;;14.80;99.90;;;;;;5063089;28;20452;-82
2022/04/15 12:12:20;;;;;;;9.50;6.60;;;14.50;99.90;;;;;;5057293;28;20451;-80
2022/04/15 12:14:53;;;;;;;13.13;9.17;;;14.40;99.90;;;;;;5056996;28;20471;-82
2022/04/15 12:17:29;;;;;;;8.67;7.40;;;14.20;99.90;;;;;;5056890;28;20471;-83
2022/04/15 12:19:59;;;;;;;7.17;6.00;;;14.30;99.90;;;;;;5056558;28;20475;-83
2022/04/15 12:22:44;;;;;;;7.13;5.67;;;14.30;99.90;;;;;;5072846;28;20937;-82
2022/04/15 12:25:26;;;;;;;5.80;4.70;;;14.00;99.90;;;;;;5076804;28;20962;-84
2022/04/15 12:27:55;;;;;;;6.30;4.70;;;14.20;99.90;;;;;;5077249;28;20486;-82
2022/04/15 12:30:37;;;;;;;6.83;5.53;;;13.90;99.90;;;;;;5077672;28;21116;-82
2022/04/15 12:33:48;;;;;;;7.40;6.10;;;13.90;99.90;;;;;;5085038;22;20834;-82
2022/04/15 12:36:21;;;;;;;8.93;5.60;;;14.30;99.90;;;;;;5057659;28;20939;-82
2022/04/15 12:39:02;;;;;;;7.87;5.33;;;14.30;99.90;;;;;;5057563;28;20564;-82
2022/04/15 12:41:45;;;;;;;6.83;4.77;;;14.70;99.90;;;;;;5056952;28;20971;-82
2022/04/15 12:44:19;;;;;;;6.10;5.20;;;14.80;99.90;;;;;;5055832;28;20487;-81
2022/04/15 12:46:48;;;;;;;5.13;4.10;;;15.00;99.90;;;;;;5056043;28;20487;-83
2022/04/15 12:49:34;;;;;;;6.17;4.53;;;15.30;99.90;;;;;;5056773;28;20837;-82
2022/04/15 12:52:12;;;;;;;6.30;4.40;;;15.30;99.90;;;;;;5057024;28;20517;-83
2022/04/15 12:55:03;;;;;;;6.20;4.00;;;15.10;99.90;;;;;;5057931;28;21065;-84
2022/04/15 12:57:33;;;;;;;7.60;5.30;;;15.20;99.90;;;;;;5057783;28;20978;-83
2022/04/15 13:00:12;;;;;;;6.23;5.03;;;14.70;99.90;;;;;;5057092;28;20511;-82